Time;durP1;ratioP1;P1;durP2;ratioP2;P2;SDS_P1;SDS_P2;PMS_P1;PMS_P2;Temp;Humidity;BMP_temperature;BMP_pressure;BME280_temperature;BME280_humidity;BME280_pressure;Samples;Min_cycle;Max_cycle;Signal;HPM_P1;HPM_P2
2022/08/18 00:00:51;;;;;;;32.78;5.90;;;;;;;;;;4999961;28;20025;-78
2022/08/18 00:03:19;;;;;;;28.60;6.18;;;;;;;;;;4990874;28;20613;-78
2022/08/18 00:05:45;;;;;;;30.10;6.07;;;;;;;;;;4982232;28;20042;-79
2022/08/18 00:08:11;;;;;;;27.48;5.68;;;;;;;;;;4980066;28;20028;-78
2022/08/18 00:10:40;;;;;;;29.45;6.82;;;;;;;;;;4996688;28;20446;-79
2022/08/18 00:13:06;;;;;;;20.83;5.10;;;;;;;;;;4975340;28;20038;-78
2022/08/18 00:15:33;;;;;;;32.10;6.45;;;;;;;;;;4996789;28;20050;-78
2022/08/18 00:17:59;;;;;;;18.77;4.80;;;;;;;;;;4998148;28;20390;-78
2022/08/18 00:20:25;;;;;;;36.30;6.45;;;;;;;;;;4996496;28;20149;-79
2022/08/18 00:22:51;;;;;;;25.58;5.90;;;;;;;;;;5000622;28;20042;-78
2022/08/18 00:25:18;;;;;;;24.15;5.80;;;;;;;;;;4998375;28;20030;-78
2022/08/18 00:27:45;;;;;;;20.63;5.40;;;;;;;;;;4991844;28;20023;-78
2022/08/18 00:30:14;;;;;;;20.45;5.55;;;;;;;;;;4983733;28;20121;-78
2022/08/18 00:32:42;;;;;;;24.08;5.80;;;;;;;;;;5009257;28;20014;-77
2022/08/18 00:35:11;;;;;;;26.33;5.18;;;;;;;;;;4999619;28;20058;-78
2022/08/18 00:37:37;;;;;;;31.70;5.90;;;;;;;;;;4978216;28;20030;-79
2022/08/18 00:40:04;;;;;;;26.25;6.50;;;;;;;;;;4996076;28;20137;-78
2022/08/18 00:42:30;;;;;;;23.00;5.75;;;;;;;;;;4997201;28;20030;-80
2022/08/18 00:44:57;;;;;;;29.50;5.45;;;;;;;;;;4999022;28;20080;-79
2022/08/18 00:47:27;;;;;;;30.20;6.15;;;;;;;;;;4983536;28;20026;-79
2022/08/18 00:49:53;;;;;;;25.85;5.95;;;;;;;;;;4998195;28;20107;-78
2022/08/18 00:52:19;;;;;;;25.92;5.00;;;;;;;;;;5001781;28;20108;-79
2022/08/18 00:54:47;;;;;;;27.38;6.03;;;;;;;;;;4998488;28;20107;-79
2022/08/18 00:57:15;;;;;;;32.55;5.35;;;;;;;;;;5000303;28;20157;-79
2022/08/18 00:59:56;;;;;;;32.30;5.85;;;;;;;;;;4997366;28;20026;-79
2022/08/18 01:02:28;;;;;;;25.83;5.15;;;;;;;;;;4985512;28;20034;-78
2022/08/18 01:04:54;;;;;;;33.10;5.55;;;;;;;;;;4995248;28;20029;-79
2022/08/18 01:07:24;;;;;;;25.73;5.55;;;;;;;;;;4997647;28;20026;-79
2022/08/18 01:09:52;;;;;;;25.20;5.97;;;;;;;;;;4999981;28;20042;-79
2022/08/18 01:12:18;;;;;;;28.63;6.07;;;;;;;;;;4989211;28;20041;-79
2022/08/18 01:14:45;;;;;;;22.85;5.47;;;;;;;;;;4997529;28;20140;-78
2022/08/18 01:22:48;;;;;;;25.83;5.75;;;;;;;;;;4998301;28;20064;-79
2022/08/18 01:28:02;;;;;;;24.23;5.07;;;;;;;;;;5002270;28;20116;-79
2022/08/18 01:30:30;;;;;;;28.33;5.65;;;;;;;;;;5000720;28;20026;-79
2022/08/18 01:32:57;;;;;;;27.05;5.93;;;;;;;;;;4994877;28;20030;-79
2022/08/18 01:35:24;;;;;;;30.30;5.88;;;;;;;;;;5003147;28;20022;-80
2022/08/18 01:37:51;;;;;;;25.85;5.18;;;;;;;;;;5001511;28;20045;-79
2022/08/18 01:40:18;;;;;;;24.55;5.20;;;;;;;;;;4986916;28;20034;-78
2022/08/18 01:42:45;;;;;;;23.02;5.60;;;;;;;;;;5002567;28;20034;-81
2022/08/18 01:45:13;;;;;;;20.65;5.40;;;;;;;;;;4987085;28;20034;-79
2022/08/18 01:47:39;;;;;;;30.15;6.32;;;;;;;;;;4999171;28;20022;-78
2022/08/18 01:50:07;;;;;;;22.90;4.68;;;;;;;;;;4997105;28;20120;-78
2022/08/18 01:52:34;;;;;;;28.27;6.10;;;;;;;;;;4999028;28;20030;-78
2022/08/18 01:55:01;;;;;;;28.58;5.43;;;;;;;;;;4998904;28;20034;-78
2022/08/18 01:57:28;;;;;;;20.65;4.85;;;;;;;;;;4994643;28;20069;-78
2022/08/18 01:59:54;;;;;;;27.50;5.97;;;;;;;;;;5003105;28;20018;-79
2022/08/18 02:02:26;;;;;;;27.60;6.57;;;;;;;;;;4987125;28;20564;-79
2022/08/18 02:04:54;;;;;;;22.38;5.53;;;;;;;;;;4998047;28;20025;-80
2022/08/18 02:07:40;;;;;;;31.38;5.25;;;;;;;;;;4996065;28;20037;-79
2022/08/18 02:10:17;;;;;;;;;;;;;;;;;;;;;
2022/08/18 02:12:43;;;;;;;19.75;5.53;;;;;;;;;;5002057;28;20022;-80
2022/08/18 02:15:10;;;;;;;28.80;5.75;;;;;;;;;;4984131;28;20876;-80
2022/08/18 02:17:41;;;;;;;31.20;5.63;;;;;;;;;;4986950;28;20022;-80
2022/08/18 02:20:09;;;;;;;18.73;4.90;;;;;;;;;;4997661;28;20043;-80
2022/08/18 02:22:35;;;;;;;21.58;5.25;;;;;;;;;;4986531;28;20049;-79
2022/08/18 02:25:01;;;;;;;22.52;5.00;;;;;;;;;;4998137;28;20238;-76
2022/08/18 02:27:28;;;;;;;25.58;5.18;;;;;;;;;;5000865;28;20061;-78
2022/08/18 02:29:54;;;;;;;24.75;5.13;;;;;;;;;;5002990;28;20022;-76
2022/08/18 02:32:20;;;;;;;21.13;4.50;;;;;;;;;;4993902;28;20035;-76
2022/08/18 02:34:46;;;;;;;23.90;5.35;;;;;;;;;;4999712;28;20503;-76
2022/08/18 02:37:13;;;;;;;29.00;5.53;;;;;;;;;;4995332;28;20430;-76
2022/08/18 02:39:40;;;;;;;27.13;5.40;;;;;;;;;;4997900;28;20204;-76
2022/08/18 02:42:07;;;;;;;18.58;4.97;;;;;;;;;;4995290;28;20042;-76
2022/08/18 02:44:33;;;;;;;16.85;5.00;;;;;;;;;;5000022;28;20525;-76
2022/08/18 02:47:00;;;;;;;22.73;4.97;;;;;;;;;;4997020;28;20030;-76
2022/08/18 02:49:26;;;;;;;23.73;5.57;;;;;;;;;;4997612;28;20022;-76
2022/08/18 02:51:53;;;;;;;27.83;5.25;;;;;;;;;;4997554;28;20025;-76
2022/08/18 02:54:22;;;;;;;22.38;5.35;;;;;;;;;;4998151;28;20030;-76
2022/08/18 02:56:53;;;;;;;26.60;5.90;;;;;;;;;;4998506;28;20077;-76
2022/08/18 02:59:26;;;;;;;20.15;4.88;;;;;;;;;;4997525;28;20208;-76
2022/08/18 03:01:54;;;;;;;26.08;5.30;;;;;;;;;;5005219;28;20040;-77
2022/08/18 03:04:26;;;;;;;19.25;5.50;;;;;;;;;;5000121;28;20521;-76
2022/08/18 03:06:52;;;;;;;20.40;4.32;;;;;;;;;;5002510;28;20052;-76
2022/08/18 03:09:18;;;;;;;20.30;5.07;;;;;;;;;;4998273;28;20026;-77
2022/08/18 03:11:45;;;;;;;21.58;6.05;;;;;;;;;;4999039;28;20026;-77
2022/08/18 03:14:11;;;;;;;23.33;5.15;;;;;;;;;;4993103;28;20030;-77
2022/08/18 03:16:39;;;;;;;26.73;5.88;;;;;;;;;;4992084;28;20056;-78
2022/08/18 03:19:05;;;;;;;19.77;5.07;;;;;;;;;;4991314;28;20050;-78
2022/08/18 03:21:35;;;;;;;22.92;5.28;;;;;;;;;;4990640;28;20494;-77
2022/08/18 03:24:02;;;;;;;26.23;5.72;;;;;;;;;;4991803;28;20553;-77
2022/08/18 03:26:29;;;;;;;23.13;5.72;;;;;;;;;;4989861;28;20031;-77
2022/08/18 03:28:55;;;;;;;22.40;4.68;;;;;;;;;;4993163;28;20033;-77
2022/08/18 03:31:22;;;;;;;25.98;5.88;;;;;;;;;;4987410;28;20038;-78
2022/08/18 03:33:50;;;;;;;28.35;5.40;;;;;;;;;;4997440;28;20466;-77
2022/08/18 03:36:21;;;;;;;23.10;5.30;;;;;;;;;;4993089;28;20450;-77
2022/08/18 03:38:50;;;;;;;19.70;5.32;;;;;;;;;;4988599;28;20027;-78
2022/08/18 03:41:17;;;;;;;21.50;4.72;;;;;;;;;;4992602;28;20389;-77
2022/08/18 03:43:43;;;;;;;19.65;4.97;;;;;;;;;;4989537;28;20395;-77
2022/08/18 03:46:12;;;;;;;32.55;5.75;;;;;;;;;;4990573;28;20375;-77
2022/08/18 03:48:39;;;;;;;24.48;4.97;;;;;;;;;;4987404;28;20042;-77
2022/08/18 03:51:06;;;;;;;24.73;5.13;;;;;;;;;;4991361;28;20030;-77
2022/08/18 03:53:33;;;;;;;18.05;4.55;;;;;;;;;;4990177;28;20507;-78
2022/08/18 03:55:59;;;;;;;22.55;5.18;;;;;;;;;;4988968;28;20206;-78
2022/08/18 03:58:26;;;;;;;18.45;4.82;;;;;;;;;;4989191;28;20022;-77
2022/08/18 04:00:52;;;;;;;22.33;5.32;;;;;;;;;;4986798;28;20026;-78
2022/08/18 04:03:19;;;;;;;18.98;5.10;;;;;;;;;;4990992;28;20046;-77
2022/08/18 04:05:46;;;;;;;28.42;5.50;;;;;;;;;;4986350;28;20085;-78
2022/08/18 04:08:12;;;;;;;28.63;5.45;;;;;;;;;;4992094;28;20145;-78
2022/08/18 04:10:38;;;;;;;26.77;5.75;;;;;;;;;;4988195;28;20613;-77
2022/08/18 04:13:05;;;;;;;26.13;5.03;;;;;;;;;;4988824;28;20030;-77
2022/08/18 04:15:31;;;;;;;23.58;5.10;;;;;;;;;;4987375;28;20023;-77
2022/08/18 04:17:59;;;;;;;22.13;4.40;;;;;;;;;;4987627;28;20027;-77
2022/08/18 04:20:25;;;;;;;27.20;6.13;;;;;;;;;;4990680;28;20264;-78
2022/08/18 04:22:51;;;;;;;23.42;5.40;;;;;;;;;;4985985;28;20057;-84
2022/08/18 04:25:18;;;;;;;28.58;5.18;;;;;;;;;;4978338;28;20752;-78
2022/08/18 04:27:44;;;;;;;29.67;5.90;;;;;;;;;;4982205;28;20021;-76
2022/08/18 04:30:11;;;;;;;25.73;5.40;;;;;;;;;;4990251;28;20502;-77
2022/08/18 04:32:38;;;;;;;24.95;5.20;;;;;;;;;;4992193;28;20448;-77
2022/08/18 04:35:04;;;;;;;24.92;4.88;;;;;;;;;;4990614;28;20018;-77
2022/08/18 04:37:31;;;;;;;19.73;5.72;;;;;;;;;;4985487;28;20045;-77
2022/08/18 04:39:58;;;;;;;24.40;5.45;;;;;;;;;;4993219;28;20032;-77
2022/08/18 04:42:24;;;;;;;29.92;5.82;;;;;;;;;;4987096;28;20515;-77
2022/08/18 04:44:51;;;;;;;28.88;6.03;;;;;;;;;;4992135;28;20066;-77
2022/08/18 04:47:17;;;;;;;23.23;6.20;;;;;;;;;;4989815;28;20478;-77
2022/08/18 04:49:43;;;;;;;25.17;6.10;;;;;;;;;;4990853;28;20062;-77
2022/08/18 04:54:54;;;;;;;33.47;5.95;;;;;;;;;;4988310;28;20076;-77
2022/08/18 04:57:21;;;;;;;31.52;5.80;;;;;;;;;;4986855;28;20583;-77
2022/08/18 04:59:49;;;;;;;25.15;6.25;;;;;;;;;;4988486;28;20038;-77
2022/08/18 05:02:15;;;;;;;35.45;6.85;;;;;;;;;;4982630;28;20034;-77
2022/08/18 05:04:45;;;;;;;28.50;6.38;;;;;;;;;;4988150;28;20050;-77
2022/08/18 05:07:12;;;;;;;31.83;6.50;;;;;;;;;;4986279;28;20253;-77
2022/08/18 05:09:40;;;;;;;24.92;5.93;;;;;;;;;;4986406;28;20446;-77
2022/08/18 05:12:07;;;;;;;21.80;6.15;;;;;;;;;;4985125;28;20371;-77
2022/08/18 05:14:34;;;;;;;22.23;5.32;;;;;;;;;;4985093;28;20047;-77
2022/08/18 05:17:01;;;;;;;24.05;6.10;;;;;;;;;;4989031;28;20026;-77
2022/08/18 05:19:27;;;;;;;25.05;5.72;;;;;;;;;;4984314;28;20062;-77
2022/08/18 05:21:56;;;;;;;22.02;5.30;;;;;;;;;;4989319;28;20033;-77
2022/08/18 05:24:23;;;;;;;19.52;5.53;;;;;;;;;;4985236;28;20035;-77
2022/08/18 05:26:50;;;;;;;27.02;6.07;;;;;;;;;;4987760;28;20048;-77
2022/08/18 05:29:17;;;;;;;32.65;6.15;;;;;;;;;;4986166;28;20031;-77
2022/08/18 05:31:43;;;;;;;22.73;5.57;;;;;;;;;;4988227;28;20113;-77
2022/08/18 05:34:09;;;;;;;21.67;5.75;;;;;;;;;;4995843;28;20034;-77
2022/08/18 05:36:35;;;;;;;19.38;5.78;;;;;;;;;;4988665;28;20037;-79
2022/08/18 05:39:20;;;;;;;30.75;5.90;;;;;;;;;;4986224;28;20109;-78
2022/08/18 05:41:51;;;;;;;31.50;6.82;;;;;;;;;;4988250;28;20034;-80
2022/08/18 05:44:28;;;;;;;28.38;5.80;;;;;;;;;;4989715;28;20030;-79
2022/08/18 05:46:56;;;;;;;19.90;5.85;;;;;;;;;;4994213;28;20280;-78
2022/08/18 05:49:24;;;;;;;33.50;6.68;;;;;;;;;;4987720;28;20065;-79
2022/08/18 05:51:56;;;;;;;39.30;8.07;;;;;;;;;;4987236;28;20014;-76
2022/08/18 05:57:10;;;;;;;20.27;6.13;;;;;;;;;;4991149;28;20094;-77
2022/08/18 05:59:38;;;;;;;26.33;6.60;;;;;;;;;;4986902;28;20080;-77
2022/08/18 06:02:14;;;;;;;25.67;5.50;;;;;;;;;;4984542;28;20096;-77
2022/08/18 06:04:40;;;;;;;24.85;5.65;;;;;;;;;;4989116;28;20474;-77
2022/08/18 06:07:08;;;;;;;28.40;6.35;;;;;;;;;;4987924;28;20037;-77
2022/08/18 06:09:43;;;;;;;28.67;6.07;;;;;;;;;;4986718;28;20097;-76
2022/08/18 06:12:29;;;;;;;22.58;5.78;;;;;;;;;;4985974;28;20026;-76
2022/08/18 06:15:00;;;;;;;29.00;6.63;;;;;;;;;;4978697;28;20048;-78
2022/08/18 06:17:29;;;;;;;29.33;6.93;;;;;;;;;;4986331;28;20018;-78
2022/08/18 06:20:02;;;;;;;32.67;6.47;;;;;;;;;;4987326;28;20402;-77
2022/08/18 06:22:35;;;;;;;24.42;6.07;;;;;;;;;;4985092;28;20030;-78
2022/08/18 06:25:31;;;;;;;24.38;6.38;;;;;;;;;;4987587;28;20078;-77
2022/08/18 06:28:07;;;;;;;24.52;5.45;;;;;;;;;;4937632;28;20046;-77
2022/08/18 06:30:52;;;;;;;27.70;6.00;;;;;;;;;;4985600;28;20081;-77
2022/08/18 06:33:37;;;;;;;25.45;5.18;;;;;;;;;;4987304;28;20030;-78
2022/08/18 06:36:07;;;;;;;32.95;6.78;;;;;;;;;;4990613;28;20026;-78
2022/08/18 06:38:52;;;;;;;20.15;5.38;;;;;;;;;;4988519;28;20101;-78
2022/08/18 06:41:23;;;;;;;19.85;5.30;;;;;;;;;;4991409;28;20091;-78
2022/08/18 06:44:22;;;;;;;30.02;6.47;;;;;;;;;;4990795;28;20088;-78
2022/08/18 06:46:50;;;;;;;20.33;5.50;;;;;;;;;;4960917;28;20026;-77
2022/08/18 06:49:35;;;;;;;23.60;5.93;;;;;;;;;;4989853;28;20045;-78
2022/08/18 06:52:20;;;;;;;19.40;5.38;;;;;;;;;;4990949;28;20038;-78
2022/08/18 06:54:47;;;;;;;19.65;5.18;;;;;;;;;;4991265;28;20018;-78
2022/08/18 06:57:26;;;;;;;26.92;5.60;;;;;;;;;;4990004;28;20042;-78
2022/08/18 07:00:00;;;;;;;31.20;5.93;;;;;;;;;;4990714;28;20436;-78
2022/08/18 07:02:35;;;;;;;24.20;5.95;;;;;;;;;;4984975;28;20052;-78
2022/08/18 07:05:01;;;;;;;29.00;5.95;;;;;;;;;;4990907;28;20014;-78
2022/08/18 07:07:33;;;;;;;27.77;6.03;;;;;;;;;;4989376;28;20022;-78
2022/08/18 07:10:00;;;;;;;29.02;5.88;;;;;;;;;;4990900;28;20030;-79
2022/08/18 07:12:27;;;;;;;22.30;5.43;;;;;;;;;;4988525;28;20296;-79
2022/08/18 07:14:59;;;;;;;23.92;5.40;;;;;;;;;;4992613;28;20037;-79
2022/08/18 07:17:38;;;;;;;28.17;6.07;;;;;;;;;;4989650;28;20021;-79
2022/08/18 07:20:05;;;;;;;27.23;5.60;;;;;;;;;;4989752;28;20049;-79
2022/08/18 07:22:31;;;;;;;26.38;6.18;;;;;;;;;;4990332;28;20038;-79
2022/08/18 07:25:00;;;;;;;28.00;6.55;;;;;;;;;;4991037;28;20489;-79
2022/08/18 07:27:47;;;;;;;23.88;6.30;;;;;;;;;;4990359;28;20018;-79
2022/08/18 07:30:14;;;;;;;25.27;6.22;;;;;;;;;;4990228;28;20030;-78
2022/08/18 07:32:46;;;;;;;27.35;6.05;;;;;;;;;;4993560;28;20052;-79
2022/08/18 07:35:15;;;;;;;27.42;6.18;;;;;;;;;;4989568;28;20108;-80
2022/08/18 07:38:00;;;;;;;24.27;6.28;;;;;;;;;;4991251;28;20027;-79
2022/08/18 07:40:37;;;;;;;25.55;6.25;;;;;;;;;;4988227;28;20045;-79
2022/08/18 07:43:15;;;;;;;23.30;6.47;;;;;;;;;;4991761;28;20093;-79
2022/08/18 07:45:45;;;;;;;29.73;6.13;;;;;;;;;;4992681;28;20036;-79
2022/08/18 07:48:15;;;;;;;29.13;6.90;;;;;;;;;;4977473;28;20022;-78
2022/08/18 07:50:47;;;;;;;27.13;5.30;;;;;;;;;;4997724;28;20133;-80
2022/08/18 07:53:35;;;;;;;23.75;6.13;;;;;;;;;;4993058;28;20017;-79
2022/08/18 07:56:05;;;;;;;30.05;6.60;;;;;;;;;;4995961;28;20038;-79
2022/08/18 07:58:37;;;;;;;32.10;6.13;;;;;;;;;;4985883;28;20026;-81
2022/08/18 08:01:03;;;;;;;28.35;5.82;;;;;;;;;;4997297;28;20371;-80
2022/08/18 08:03:49;;;;;;;36.22;7.18;;;;;;;;;;4996640;28;20064;-77
2022/08/18 08:06:18;;;;;;;35.05;7.03;;;;;;;;;;4990509;28;20025;-79
2022/08/18 08:08:53;;;;;;;27.45;6.20;;;;;;;;;;4995384;28;20553;-80
2022/08/18 08:11:20;;;;;;;35.70;7.57;;;;;;;;;;4995345;28;20057;-81
2022/08/18 08:13:46;;;;;;;28.08;5.88;;;;;;;;;;4979673;28;20619;-79
2022/08/18 08:16:12;;;;;;;28.88;6.00;;;;;;;;;;4998006;28;20022;-81
2022/08/18 08:18:49;;;;;;;25.23;5.72;;;;;;;;;;4993985;28;20065;-81
2022/08/18 08:21:17;;;;;;;24.80;5.43;;;;;;;;;;4980916;28;20040;-81
2022/08/18 08:23:49;;;;;;;24.65;5.10;;;;;;;;;;5001294;28;20038;-80
2022/08/18 08:26:21;;;;;;;23.38;5.47;;;;;;;;;;4988257;28;20033;-81
2022/08/18 08:29:03;;;;;;;32.15;6.63;;;;;;;;;;4998862;28;20026;-80
2022/08/18 08:31:38;;;;;;;27.92;6.55;;;;;;;;;;4995440;28;20073;-79
2022/08/18 08:34:04;;;;;;;30.05;5.70;;;;;;;;;;4993803;28;20088;-81
2022/08/18 08:36:35;;;;;;;36.08;5.72;;;;;;;;;;4994374;28;20025;-81
2022/08/18 08:39:04;;;;;;;26.73;5.78;;;;;;;;;;4999654;28;20029;-79
2022/08/18 08:41:30;;;;;;;34.00;6.57;;;;;;;;;;4986470;28;20021;-79
2022/08/18 08:43:57;;;;;;;31.30;7.40;;;;;;;;;;4987104;28;20030;-79
2022/08/18 08:46:28;;;;;;;33.45;6.60;;;;;;;;;;4989977;28;20096;-79
2022/08/18 08:49:14;;;;;;;34.00;6.57;;;;;;;;;;4987463;28;20037;-78
2022/08/18 08:51:55;;;;;;;26.95;5.85;;;;;;;;;;4983411;28;20076;-80
2022/08/18 08:54:30;;;;;;;30.05;6.28;;;;;;;;;;4993497;28;20018;-81
2022/08/18 08:56:59;;;;;;;22.55;6.22;;;;;;;;;;4997628;28;20046;-86
2022/08/18 08:59:25;;;;;;;27.25;6.43;;;;;;;;;;4993192;28;20198;-84
2022/08/18 09:02:11;;;;;;;30.27;6.63;;;;;;;;;;4989611;28;20089;-87
2022/08/18 09:04:46;;;;;;;31.02;6.50;;;;;;;;;;4991131;28;20072;-85
2022/08/18 09:07:22;;;;;;;28.63;6.82;;;;;;;;;;4992816;28;20037;-88
2022/08/18 09:09:51;;;;;;;30.95;6.53;;;;;;;;;;5002838;28;20026;-90
2022/08/18 09:12:20;;;;;;;30.15;6.40;;;;;;;;;;4993477;28;20842;-83
2022/08/18 09:14:55;;;;;;;32.88;5.95;;;;;;;;;;4992261;28;20040;-89
2022/08/18 09:17:23;;;;;;;23.23;6.22;;;;;;;;;;4996598;28;20140;-89
2022/08/18 09:20:08;;;;;;;29.27;5.90;;;;;;;;;;4979967;28;20042;-85
2022/08/18 09:22:54;;;;;;;24.67;5.85;;;;;;;;;;4996948;28;20065;-83
2022/08/18 09:25:32;;;;;;;27.17;5.80;;;;;;;;;;4987854;28;20646;-83
2022/08/18 09:28:17;;;;;;;28.98;6.53;;;;;;;;;;4984038;28;20470;-82
2022/08/18 09:30:46;;;;;;;24.00;6.15;;;;;;;;;;4992293;28;20455;-84
2022/08/18 09:33:28;;;;;;;27.88;6.40;;;;;;;;;;4992238;28;20037;-85
2022/08/18 09:35:59;;;;;;;33.47;6.40;;;;;;;;;;4989762;28;20058;-82
2022/08/18 09:41:33;;;;;;;22.83;6.70;;;;;;;;;;4989562;28;20089;-82
2022/08/18 09:44:11;;;;;;;28.40;6.80;;;;;;;;;;4995675;28;20038;-83
2022/08/18 09:46:45;;;;;;;22.67;5.75;;;;;;;;;;4984530;28;20105;-83
2022/08/18 09:49:23;;;;;;;25.27;5.55;;;;;;;;;;4989918;28;20022;-84
2022/08/18 09:52:00;;;;;;;22.50;5.07;;;;;;;;;;4986299;28;20483;-84
2022/08/18 09:54:27;;;;;;;27.80;5.68;;;;;;;;;;4991761;28;20058;-83
2022/08/18 09:57:16;;;;;;;21.52;5.75;;;;;;;;;;4989897;28;20544;-83
2022/08/18 09:59:46;;;;;;;23.33;5.45;;;;;;;;;;4987184;28;20057;-87
2022/08/18 10:02:32;;;;;;;23.63;5.53;;;;;;;;;;4990358;28;20653;-84
2022/08/18 10:05:19;;;;;;;27.00;5.50;;;;;;;;;;4994881;28;20638;-85
2022/08/18 10:07:55;;;;;;;27.00;4.70;;;;;;;;;;4986748;28;20037;-84
2022/08/18 10:10:23;;;;;;;23.52;5.13;;;;;;;;;;4987897;28;20025;-83
2022/08/18 10:13:03;;;;;;;30.58;5.95;;;;;;;;;;4985043;28;20119;-84
2022/08/18 10:15:37;;;;;;;26.33;5.28;;;;;;;;;;4992462;28;20026;-81
2022/08/18 10:18:03;;;;;;;25.58;5.25;;;;;;;;;;4987298;28;20030;-76
2022/08/18 10:20:32;;;;;;;32.63;6.35;;;;;;;;;;4989580;28;20057;-79
2022/08/18 10:22:59;;;;;;;32.53;5.97;;;;;;;;;;4983781;28;20046;-79
2022/08/18 10:25:33;;;;;;;25.95;5.70;;;;;;;;;;4989227;28;20033;-75
2022/08/18 10:28:04;;;;;;;29.75;5.20;;;;;;;;;;4986733;28;20479;-76
2022/08/18 10:30:33;;;;;;;30.20;5.53;;;;;;;;;;4989218;28;20022;-76
2022/08/18 10:33:00;;;;;;;21.33;4.80;;;;;;;;;;4988083;28;20025;-75
2022/08/18 10:35:35;;;;;;;23.27;4.95;;;;;;;;;;4985656;28;20026;-75
2022/08/18 10:38:18;;;;;;;27.23;5.47;;;;;;;;;;4988217;28;20484;-75
2022/08/18 10:40:54;;;;;;;22.95;5.50;;;;;;;;;;4987566;28;20642;-75
2022/08/18 10:43:29;;;;;;;31.63;4.88;;;;;;;;;;4986198;28;20037;-74
2022/08/18 10:45:56;;;;;;;24.63;5.38;;;;;;;;;;4985751;28;20061;-74
2022/08/18 10:48:24;;;;;;;27.20;5.30;;;;;;;;;;4986361;28;20023;-75
2022/08/18 10:50:52;;;;;;;25.02;6.07;;;;;;;;;;4986525;28;20057;-74
2022/08/18 10:53:34;;;;;;;26.52;5.30;;;;;;;;;;4986162;28;20105;-74
2022/08/18 10:56:19;;;;;;;26.10;5.57;;;;;;;;;;4989077;28;20411;-75
2022/08/18 10:58:55;;;;;;;20.05;5.30;;;;;;;;;;4986660;28;20022;-74
2022/08/18 11:01:24;;;;;;;26.40;5.90;;;;;;;;;;4986880;28;20851;-74
2022/08/18 11:04:09;;;;;;;27.83;6.18;;;;;;;;;;4990754;28;20680;-74
2022/08/18 11:06:47;;;;;;;22.73;5.78;;;;;;;;;;4987810;28;20091;-75
2022/08/18 11:09:13;;;;;;;25.73;5.80;;;;;;;;;;4988262;28;20039;-74
2022/08/18 11:11:42;;;;;;;22.02;5.18;;;;;;;;;;4989064;28;20028;-74
2022/08/18 11:14:25;;;;;;;22.90;5.30;;;;;;;;;;4986484;28;20031;-74
2022/08/18 11:17:10;;;;;;;23.42;5.18;;;;;;;;;;4992053;28;20546;-73
2022/08/18 11:19:38;;;;;;;29.50;5.57;;;;;;;;;;4985084;28;20054;-73
2022/08/18 11:22:04;;;;;;;28.13;5.93;;;;;;;;;;4990249;28;20026;-75
2022/08/18 11:24:34;;;;;;;24.42;5.28;;;;;;;;;;4989392;28;20033;-75
2022/08/18 11:27:03;;;;;;;23.60;5.28;;;;;;;;;;4991313;28;20041;-75
2022/08/18 11:29:41;;;;;;;21.23;5.85;;;;;;;;;;4988216;28;20378;-75
2022/08/18 11:32:20;;;;;;;21.65;5.32;;;;;;;;;;4990507;28;20453;-75
2022/08/18 11:34:46;;;;;;;19.35;4.80;;;;;;;;;;4994220;28;20079;-75
2022/08/18 11:37:25;;;;;;;24.30;5.65;;;;;;;;;;4993252;28;20442;-76
2022/08/18 11:39:53;;;;;;;25.80;5.50;;;;;;;;;;4991104;28;20026;-76
2022/08/18 11:42:25;;;;;;;26.52;6.35;;;;;;;;;;4989132;28;20022;-76
2022/08/18 11:44:54;;;;;;;23.50;5.45;;;;;;;;;;4994344;28;20101;-76
2022/08/18 11:47:21;;;;;;;28.27;6.40;;;;;;;;;;4987286;28;20026;-76
2022/08/18 11:49:58;;;;;;;22.63;6.63;;;;;;;;;;4979760;28;20463;-76
2022/08/18 11:52:29;;;;;;;20.33;6.10;;;;;;;;;;4993066;28;20069;-75
2022/08/18 11:54:59;;;;;;;25.10;5.88;;;;;;;;;;4991542;28;20032;-76
2022/08/18 11:57:30;;;;;;;17.77;5.57;;;;;;;;;;4987531;28;20027;-76
2022/08/18 11:59:56;;;;;;;20.38;6.35;;;;;;;;;;4993770;28;20026;-76
2022/08/18 12:02:24;;;;;;;21.90;6.63;;;;;;;;;;4985070;28;20042;-76
2022/08/18 12:04:52;;;;;;;21.33;6.88;;;;;;;;;;4991177;28;20132;-75
2022/08/18 12:07:27;;;;;;;24.98;6.50;;;;;;;;;;4990382;28;20480;-76
2022/08/18 12:10:10;;;;;;;27.33;7.95;;;;;;;;;;4989759;28;20050;-75
2022/08/18 12:12:44;;;;;;;32.35;9.85;;;;;;;;;;4989473;28;20029;-75
2022/08/18 12:15:13;;;;;;;28.20;10.10;;;;;;;;;;4988043;28;20062;-76
2022/08/18 12:17:40;;;;;;;25.30;10.07;;;;;;;;;;4989298;28;20655;-76
2022/08/18 12:20:07;;;;;;;30.88;10.32;;;;;;;;;;4989434;28;20052;-76
2022/08/18 12:22:34;;;;;;;23.70;10.35;;;;;;;;;;4989396;28;20645;-76
2022/08/18 12:25:01;;;;;;;30.17;11.18;;;;;;;;;;4991620;28;20037;-76
2022/08/18 12:27:30;;;;;;;29.38;11.25;;;;;;;;;;4989802;28;20735;-76
2022/08/18 12:29:57;;;;;;;24.63;12.13;;;;;;;;;;4987871;28;20109;-76
2022/08/18 12:32:26;;;;;;;25.00;12.75;;;;;;;;;;4992296;28;20109;-75
2022/08/18 12:34:52;;;;;;;31.17;12.68;;;;;;;;;;4994262;28;20022;-76
2022/08/18 12:37:20;;;;;;;26.10;12.32;;;;;;;;;;4990184;28;20021;-76
2022/08/18 12:39:47;;;;;;;25.02;12.13;;;;;;;;;;4987786;28;20230;-76
2022/08/18 12:42:13;;;;;;;29.13;12.00;;;;;;;;;;4987740;28;20034;-73
2022/08/18 12:44:40;;;;;;;21.05;11.23;;;;;;;;;;4993737;28;20111;-76
2022/08/18 12:47:32;;;;;;;22.27;10.38;;;;;;;;;;4986231;28;20064;-75
2022/08/18 12:49:58;;;;;;;26.92;11.68;;;;;;;;;;4986571;28;20046;-75
2022/08/18 12:52:25;;;;;;;22.85;12.68;;;;;;;;;;4990665;28;20521;-76
2022/08/18 12:54:51;;;;;;;24.20;13.07;;;;;;;;;;4987365;28;20026;-75
2022/08/18 12:57:22;;;;;;;30.98;14.45;;;;;;;;;;4988465;28;20029;-76
2022/08/18 12:59:48;;;;;;;27.50;16.33;;;;;;;;;;4987212;28;20112;-76
2022/08/18 13:02:15;;;;;;;29.63;19.58;;;;;;;;;;4986572;28;20026;-75
2022/08/18 13:04:42;;;;;;;31.35;21.63;;;;;;;;;;4995358;28;20026;-75
2022/08/18 13:07:10;;;;;;;41.85;25.48;;;;;;;;;;4997793;28;20160;-75
2022/08/18 13:09:36;;;;;;;38.80;24.42;;;;;;;;;;4991906;28;20129;-75
2022/08/18 13:12:03;;;;;;;32.72;25.25;;;;;;;;;;4993517;28;20344;-76
2022/08/18 13:14:29;;;;;;;45.03;34.97;;;;;;;;;;4990191;28;20139;-75
2022/08/18 13:16:55;;;;;;;53.97;40.28;;;;;;;;;;4998314;28;20030;-77
2022/08/18 13:19:21;;;;;;;45.75;40.72;;;;;;;;;;4992988;28;20050;-74
2022/08/18 13:21:48;;;;;;;51.65;46.33;;;;;;;;;;4990452;28;20534;-72
2022/08/18 13:24:14;;;;;;;63.28;50.70;;;;;;;;;;4991029;28;20256;-75
2022/08/18 13:26:44;;;;;;;58.97;48.90;;;;;;;;;;4989298;28;20033;-75
2022/08/18 13:29:10;;;;;;;53.63;47.90;;;;;;;;;;4990298;28;20085;-75
2022/08/18 13:31:37;;;;;;;58.33;45.70;;;;;;;;;;4987996;28;20022;-75
2022/08/18 13:34:06;;;;;;;52.83;46.13;;;;;;;;;;4987460;28;20034;-74
2022/08/18 13:36:43;;;;;;;50.40;44.00;;;;;;;;;;4987491;28;20108;-74
2022/08/18 13:39:11;;;;;;;41.65;37.17;;;;;;;;;;4992592;28;20045;-75
2022/08/18 13:41:38;;;;;;;32.15;25.08;;;;;;;;;;4992121;28;20022;-75
2022/08/18 13:44:04;;;;;;;33.53;18.75;;;;;;;;;;4986341;28;20049;-74
2022/08/18 13:46:30;;;;;;;30.45;16.33;;;;;;;;;;4986075;28;20049;-74
2022/08/18 13:49:01;;;;;;;27.25;15.57;;;;;;;;;;4986673;28;20038;-74
2022/08/18 13:51:27;;;;;;;31.00;14.38;;;;;;;;;;4989713;28;20018;-74
2022/08/18 13:53:53;;;;;;;20.77;9.90;;;;;;;;;;4984133;28;20026;-74
2022/08/18 13:56:19;;;;;;;31.20;12.32;;;;;;;;;;4997741;28;20038;-73
2022/08/18 13:58:45;;;;;;;32.20;12.90;;;;;;;;;;4987108;28;20046;-74
2022/08/18 14:01:12;;;;;;;25.17;12.40;;;;;;;;;;4981837;28;20030;-72
2022/08/18 14:03:38;;;;;;;37.88;16.85;;;;;;;;;;4984408;28;20510;-72
2022/08/18 14:06:06;;;;;;;35.78;25.27;;;;;;;;;;4986314;28;20081;-74
2022/08/18 14:08:32;;;;;;;42.25;30.02;;;;;;;;;;4994510;28;20033;-73
2022/08/18 14:11:00;;;;;;;34.30;24.58;;;;;;;;;;4986174;28;20046;-73
2022/08/18 14:13:27;;;;;;;39.72;21.35;;;;;;;;;;4995826;28;20408;-73
2022/08/18 14:15:54;;;;;;;29.23;19.85;;;;;;;;;;4985765;28;20041;-73
2022/08/18 14:18:21;;;;;;;34.30;15.77;;;;;;;;;;4990046;28;20096;-72
2022/08/18 14:26:49;;;;;;;38.22;20.95;;;;;;;;;;4981966;28;20050;-74
2022/08/18 14:29:16;;;;;;;45.17;34.13;;;;;;;;;;4995057;28;20030;-73
2022/08/18 14:31:42;;;;;;;45.47;37.75;;;;;;;;;;4994953;28;20529;-73
2022/08/18 14:34:08;;;;;;;51.95;39.83;;;;;;;;;;4992054;28;20112;-73
2022/08/18 14:36:35;;;;;;;48.10;34.75;;;;;;;;;;4985995;28;20026;-73
2022/08/18 14:39:01;;;;;;;42.83;33.05;;;;;;;;;;4988899;28;20031;-73
2022/08/18 14:41:28;;;;;;;33.08;25.05;;;;;;;;;;4989187;28;20046;-73
2022/08/18 14:43:55;;;;;;;44.08;37.60;;;;;;;;;;4984928;28;20136;-73
2022/08/18 14:46:21;;;;;;;63.45;44.33;;;;;;;;;;4988326;28;20720;-72
2022/08/18 14:48:48;;;;;;;45.25;33.33;;;;;;;;;;4985723;28;20208;-73
2022/08/18 14:51:14;;;;;;;39.05;31.73;;;;;;;;;;4987241;28;20030;-73
2022/08/18 14:53:41;;;;;;;45.95;30.92;;;;;;;;;;4985163;28;20030;-73
2022/08/18 14:56:07;;;;;;;45.00;32.55;;;;;;;;;;4988548;28;20030;-73
2022/08/18 14:58:33;;;;;;;43.08;31.98;;;;;;;;;;4995337;28;20034;-73
2022/08/18 15:01:06;;;;;;;58.05;44.25;;;;;;;;;;4987537;28;20022;-73
2022/08/18 15:03:33;;;;;;;42.63;35.28;;;;;;;;;;4989344;28;20473;-73
2022/08/18 15:06:00;;;;;;;46.30;34.90;;;;;;;;;;4988965;28;20026;-73
2022/08/18 15:08:26;;;;;;;62.42;44.63;;;;;;;;;;4991513;28;20056;-73